sensor_id;sensor_type;location;lat;lon;timestamp;P1;durP1;ratioP1;P2;durP2;ratioP2
70297;SDS011;57702;44.420;20.298;2022-07-23T00:02:09;32.33;;;5.63;;
70297;SDS011;57702;44.420;20.298;2022-07-23T00:04:36;33.85;;;6.00;;
70297;SDS011;57702;44.420;20.298;2022-07-23T00:07:02;33.85;;;6.95;;
70297;SDS011;57702;44.420;20.298;2022-07-23T00:09:28;31.90;;;6.00;;
70297;SDS011;57702;44.420;20.298;2022-07-23T00:11:56;23.88;;;5.97;;
70297;SDS011;57702;44.420;20.298;2022-07-23T00:14:22;30.58;;;6.22;;
70297;SDS011;57702;44.420;20.298;2022-07-23T00:16:48;45.53;;;6.47;;
70297;SDS011;57702;44.420;20.298;2022-07-23T00:19:14;32.85;;;5.57;;
70297;SDS011;57702;44.420;20.298;2022-07-23T00:21:40;33.42;;;5.60;;
70297;SDS011;57702;44.420;20.298;2022-07-23T00:24:07;34.17;;;5.65;;
70297;SDS011;57702;44.420;20.298;2022-07-23T00:26:33;31.60;;;7.18;;
70297;SDS011;57702;44.420;20.298;2022-07-23T00:28:59;44.35;;;6.40;;
70297;SDS011;57702;44.420;20.298;2022-07-23T00:31:25;40.22;;;6.75;;
70297;SDS011;57702;44.420;20.298;2022-07-23T00:33:52;27.88;;;6.10;;
70297;SDS011;57702;44.420;20.298;2022-07-23T00:36:22;29.30;;;5.75;;
70297;SDS011;57702;44.420;20.298;2022-07-23T00:38:49;25.95;;;5.07;;
70297;SDS011;57702;44.420;20.298;2022-07-23T00:41:15;42.45;;;5.10;;
70297;SDS011;57702;44.420;20.298;2022-07-23T00:43:41;38.45;;;5.28;;
70297;SDS011;57702;44.420;20.298;2022-07-23T00:46:07;34.97;;;5.38;;
70297;SDS011;57702;44.420;20.298;2022-07-23T00:48:34;24.73;;;5.85;;
70297;SDS011;57702;44.420;20.298;2022-07-23T00:51:00;40.53;;;5.80;;
70297;SDS011;57702;44.420;20.298;2022-07-23T00:53:26;31.05;;;5.78;;
70297;SDS011;57702;44.420;20.298;2022-07-23T00:55:53;32.55;;;5.65;;
70297;SDS011;57702;44.420;20.298;2022-07-23T00:58:19;25.70;;;5.10;;
70297;SDS011;57702;44.420;20.298;2022-07-23T01:00:45;14.25;;;4.63;;
70297;SDS011;57702;44.420;20.298;2022-07-23T01:03:12;32.88;;;5.93;;
70297;SDS011;57702;44.420;20.298;2022-07-23T01:05:38;45.63;;;5.85;;
70297;SDS011;57702;44.420;20.298;2022-07-23T01:08:05;19.50;;;5.60;;
70297;SDS011;57702;44.420;20.298;2022-07-23T01:10:32;33.53;;;5.53;;
70297;SDS011;57702;44.420;20.298;2022-07-23T01:12:59;15.30;;;4.30;;
70297;SDS011;57702;44.420;20.298;2022-07-23T01:15:25;18.83;;;4.90;;
70297;SDS011;57702;44.420;20.298;2022-07-23T01:17:51;23.10;;;4.95;;
70297;SDS011;57702;44.420;20.298;2022-07-23T01:20:17;23.85;;;5.53;;
70297;SDS011;57702;44.420;20.298;2022-07-23T01:22:44;28.02;;;6.68;;
70297;SDS011;57702;44.420;20.298;2022-07-23T01:25:10;29.90;;;5.88;;
70297;SDS011;57702;44.420;20.298;2022-07-23T01:27:36;14.98;;;5.28;;
70297;SDS011;57702;44.420;20.298;2022-07-23T01:30:02;11.32;;;4.78;;
70297;SDS011;57702;44.420;20.298;2022-07-23T01:32:29;20.13;;;5.78;;
70297;SDS011;57702;44.420;20.298;2022-07-23T01:34:55;24.02;;;5.68;;
70297;SDS011;57702;44.420;20.298;2022-07-23T01:37:21;20.77;;;5.50;;
70297;SDS011;57702;44.420;20.298;2022-07-23T01:39:47;19.30;;;5.68;;
70297;SDS011;57702;44.420;20.298;2022-07-23T01:42:13;28.88;;;5.57;;
70297;SDS011;57702;44.420;20.298;2022-07-23T01:44:40;24.15;;;6.22;;
70297;SDS011;57702;44.420;20.298;2022-07-23T01:47:06;32.33;;;6.07;;
70297;SDS011;57702;44.420;20.298;2022-07-23T01:49:32;21.73;;;5.35;;
70297;SDS011;57702;44.420;20.298;2022-07-23T01:51:58;31.75;;;5.85;;
70297;SDS011;57702;44.420;20.298;2022-07-23T01:54:25;24.17;;;4.70;;
70297;SDS011;57702;44.420;20.298;2022-07-23T01:56:51;17.00;;;4.68;;
70297;SDS011;57702;44.420;20.298;2022-07-23T01:59:17;16.30;;;5.63;;
70297;SDS011;57702;44.420;20.298;2022-07-23T02:01:43;24.75;;;4.43;;
70297;SDS011;57702;44.420;20.298;2022-07-23T02:04:10;23.42;;;5.18;;
70297;SDS011;57702;44.420;20.298;2022-07-23T02:06:36;28.50;;;6.22;;
70297;SDS011;57702;44.420;20.298;2022-07-23T02:09:02;36.13;;;5.53;;
70297;SDS011;57702;44.420;20.298;2022-07-23T02:11:28;26.35;;;5.07;;
70297;SDS011;57702;44.420;20.298;2022-07-23T02:13:54;20.77;;;5.22;;
70297;SDS011;57702;44.420;20.298;2022-07-23T02:16:21;20.90;;;5.53;;
70297;SDS011;57702;44.420;20.298;2022-07-23T02:18:47;22.60;;;5.53;;
70297;SDS011;57702;44.420;20.298;2022-07-23T02:21:13;14.10;;;5.05;;
70297;SDS011;57702;44.420;20.298;2022-07-23T02:23:39;19.83;;;5.82;;
70297;SDS011;57702;44.420;20.298;2022-07-23T02:26:05;12.70;;;4.80;;
70297;SDS011;57702;44.420;20.298;2022-07-23T02:28:31;19.45;;;5.55;;
70297;SDS011;57702;44.420;20.298;2022-07-23T02:30:57;16.90;;;5.03;;
70297;SDS011;57702;44.420;20.298;2022-07-23T02:33:24;26.48;;;5.75;;
70297;SDS011;57702;44.420;20.298;2022-07-23T02:35:50;20.27;;;5.15;;
70297;SDS011;57702;44.420;20.298;2022-07-23T02:38:16;25.73;;;6.07;;
70297;SDS011;57702;44.420;20.298;2022-07-23T02:40:42;30.63;;;5.32;;
70297;SDS011;57702;44.420;20.298;2022-07-23T02:43:08;30.67;;;5.57;;
70297;SDS011;57702;44.420;20.298;2022-07-23T02:45:35;28.75;;;5.43;;
70297;SDS011;57702;44.420;20.298;2022-07-23T02:48:01;34.15;;;5.45;;
70297;SDS011;57702;44.420;20.298;2022-07-23T02:50:27;28.02;;;5.53;;
70297;SDS011;57702;44.420;20.298;2022-07-23T02:52:53;15.70;;;5.28;;
70297;SDS011;57702;44.420;20.298;2022-07-23T02:55:19;18.55;;;5.05;;
70297;SDS011;57702;44.420;20.298;2022-07-23T02:57:45;26.83;;;5.38;;
70297;SDS011;57702;44.420;20.298;2022-07-23T03:00:11;19.05;;;5.22;;
70297;SDS011;57702;44.420;20.298;2022-07-23T03:02:38;41.13;;;6.25;;
70297;SDS011;57702;44.420;20.298;2022-07-23T03:05:04;23.52;;;5.40;;
70297;SDS011;57702;44.420;20.298;2022-07-23T03:07:30;13.05;;;5.57;;
70297;SDS011;57702;44.420;20.298;2022-07-23T03:09:57;18.67;;;5.50;;
70297;SDS011;57702;44.420;20.298;2022-07-23T03:12:23;16.92;;;6.18;;
70297;SDS011;57702;44.420;20.298;2022-07-23T03:14:49;20.60;;;5.75;;
70297;SDS011;57702;44.420;20.298;2022-07-23T03:17:15;19.90;;;5.65;;
70297;SDS011;57702;44.420;20.298;2022-07-23T03:19:41;14.98;;;5.07;;
70297;SDS011;57702;44.420;20.298;2022-07-23T03:22:07;18.98;;;5.55;;
70297;SDS011;57702;44.420;20.298;2022-07-23T03:24:33;17.88;;;5.53;;
70297;SDS011;57702;44.420;20.298;2022-07-23T03:27:18;29.08;;;5.05;;
70297;SDS011;57702;44.420;20.298;2022-07-23T03:29:45;19.20;;;5.60;;
70297;SDS011;57702;44.420;20.298;2022-07-23T03:32:11;20.02;;;5.72;;
70297;SDS011;57702;44.420;20.298;2022-07-23T03:34:37;14.57;;;5.22;;
70297;SDS011;57702;44.420;20.298;2022-07-23T03:37:03;15.60;;;5.40;;
70297;SDS011;57702;44.420;20.298;2022-07-23T03:39:30;20.85;;;4.97;;
70297;SDS011;57702;44.420;20.298;2022-07-23T03:41:56;42.80;;;5.65;;
70297;SDS011;57702;44.420;20.298;2022-07-23T03:44:22;23.20;;;5.25;;
70297;SDS011;57702;44.420;20.298;2022-07-23T03:46:48;12.70;;;5.35;;
70297;SDS011;57702;44.420;20.298;2022-07-23T03:49:15;23.55;;;6.25;;
70297;SDS011;57702;44.420;20.298;2022-07-23T03:51:41;15.95;;;5.30;;
70297;SDS011;57702;44.420;20.298;2022-07-23T03:54:07;19.38;;;5.55;;
70297;SDS011;57702;44.420;20.298;2022-07-23T03:56:33;18.23;;;5.57;;
70297;SDS011;57702;44.420;20.298;2022-07-23T03:58:59;29.20;;;5.55;;
70297;SDS011;57702;44.420;20.298;2022-07-23T04:01:25;18.90;;;5.30;;
70297;SDS011;57702;44.420;20.298;2022-07-23T04:03:51;19.88;;;5.60;;
70297;SDS011;57702;44.420;20.298;2022-07-23T04:06:18;22.48;;;5.78;;
70297;SDS011;57702;44.420;20.298;2022-07-23T04:08:44;17.77;;;4.85;;
70297;SDS011;57702;44.420;20.298;2022-07-23T04:11:10;20.08;;;4.90;;
70297;SDS011;57702;44.420;20.298;2022-07-23T04:13:36;13.93;;;5.88;;
70297;SDS011;57702;44.420;20.298;2022-07-23T04:16:02;18.10;;;5.55;;
70297;SDS011;57702;44.420;20.298;2022-07-23T04:18:29;24.70;;;6.63;;
70297;SDS011;57702;44.420;20.298;2022-07-23T04:20:55;13.68;;;4.65;;
70297;SDS011;57702;44.420;20.298;2022-07-23T04:23:21;17.05;;;5.50;;
70297;SDS011;57702;44.420;20.298;2022-07-23T04:25:47;14.32;;;5.57;;
70297;SDS011;57702;44.420;20.298;2022-07-23T04:28:14;18.52;;;6.00;;
70297;SDS011;57702;44.420;20.298;2022-07-23T04:30:40;24.15;;;6.70;;
70297;SDS011;57702;44.420;20.298;2022-07-23T04:33:06;35.17;;;14.60;;
70297;SDS011;57702;44.420;20.298;2022-07-23T04:35:33;30.00;;;12.43;;
70297;SDS011;57702;44.420;20.298;2022-07-23T04:37:59;22.33;;;9.45;;
70297;SDS011;57702;44.420;20.298;2022-07-23T04:40:25;23.20;;;7.50;;
70297;SDS011;57702;44.420;20.298;2022-07-23T04:42:52;27.52;;;5.63;;
70297;SDS011;57702;44.420;20.298;2022-07-23T04:45:18;21.17;;;6.30;;
70297;SDS011;57702;44.420;20.298;2022-07-23T04:47:44;34.33;;;5.95;;
70297;SDS011;57702;44.420;20.298;2022-07-23T04:50:11;36.25;;;7.18;;
70297;SDS011;57702;44.420;20.298;2022-07-23T04:52:37;51.53;;;7.75;;
70297;SDS011;57702;44.420;20.298;2022-07-23T04:55:03;38.90;;;7.75;;
70297;SDS011;57702;44.420;20.298;2022-07-23T04:57:30;32.53;;;7.68;;
70297;SDS011;57702;44.420;20.298;2022-07-23T04:59:56;38.53;;;8.07;;
70297;SDS011;57702;44.420;20.298;2022-07-23T05:02:22;43.15;;;8.57;;
70297;SDS011;57702;44.420;20.298;2022-07-23T05:04:48;26.92;;;6.75;;
70297;SDS011;57702;44.420;20.298;2022-07-23T05:07:15;36.22;;;6.32;;
70297;SDS011;57702;44.420;20.298;2022-07-23T05:09:42;34.33;;;6.05;;
70297;SDS011;57702;44.420;20.298;2022-07-23T05:12:08;26.40;;;5.22;;
70297;SDS011;57702;44.420;20.298;2022-07-23T05:14:34;15.93;;;4.55;;
70297;SDS011;57702;44.420;20.298;2022-07-23T05:17:01;22.17;;;5.07;;
70297;SDS011;57702;44.420;20.298;2022-07-23T05:19:27;27.25;;;5.47;;
70297;SDS011;57702;44.420;20.298;2022-07-23T05:21:53;36.22;;;4.93;;
70297;SDS011;57702;44.420;20.298;2022-07-23T05:24:19;23.42;;;5.30;;
70297;SDS011;57702;44.420;20.298;2022-07-23T05:26:45;22.52;;;4.85;;
70297;SDS011;57702;44.420;20.298;2022-07-23T05:29:11;25.55;;;5.22;;
70297;SDS011;57702;44.420;20.298;2022-07-23T05:31:37;29.90;;;5.93;;
70297;SDS011;57702;44.420;20.298;2022-07-23T05:34:03;20.33;;;4.75;;
70297;SDS011;57702;44.420;20.298;2022-07-23T05:36:31;34.03;;;5.38;;
70297;SDS011;57702;44.420;20.298;2022-07-23T05:38:57;25.80;;;5.28;;
70297;SDS011;57702;44.420;20.298;2022-07-23T05:41:25;26.17;;;5.82;;
70297;SDS011;57702;44.420;20.298;2022-07-23T05:43:51;17.83;;;5.50;;
70297;SDS011;57702;44.420;20.298;2022-07-23T05:46:17;23.75;;;5.22;;
70297;SDS011;57702;44.420;20.298;2022-07-23T05:48:43;21.85;;;5.93;;
70297;SDS011;57702;44.420;20.298;2022-07-23T05:51:11;28.77;;;4.95;;
70297;SDS011;57702;44.420;20.298;2022-07-23T05:53:37;24.63;;;6.03;;
70297;SDS011;57702;44.420;20.298;2022-07-23T05:56:03;13.65;;;5.72;;
70297;SDS011;57702;44.420;20.298;2022-07-23T05:58:29;33.28;;;5.68;;
70297;SDS011;57702;44.420;20.298;2022-07-23T06:00:56;22.23;;;5.05;;
70297;SDS011;57702;44.420;20.298;2022-07-23T06:03:22;18.58;;;5.15;;
70297;SDS011;57702;44.420;20.298;2022-07-23T06:05:48;19.02;;;5.72;;
70297;SDS011;57702;44.420;20.298;2022-07-23T06:08:14;23.73;;;5.72;;
70297;SDS011;57702;44.420;20.298;2022-07-23T06:10:40;16.50;;;5.82;;
70297;SDS011;57702;44.420;20.298;2022-07-23T06:13:06;25.90;;;6.47;;
70297;SDS011;57702;44.420;20.298;2022-07-23T06:15:33;20.17;;;5.30;;
70297;SDS011;57702;44.420;20.298;2022-07-23T06:17:59;17.75;;;5.38;;
70297;SDS011;57702;44.420;20.298;2022-07-23T06:20:25;15.77;;;5.10;;
70297;SDS011;57702;44.420;20.298;2022-07-23T06:22:51;14.90;;;4.95;;
70297;SDS011;57702;44.420;20.298;2022-07-23T06:25:17;26.88;;;6.78;;
70297;SDS011;57702;44.420;20.298;2022-07-23T06:27:45;27.55;;;7.63;;
70297;SDS011;57702;44.420;20.298;2022-07-23T06:30:12;56.15;;;15.90;;
70297;SDS011;57702;44.420;20.298;2022-07-23T06:32:39;103.18;;;28.75;;
70297;SDS011;57702;44.420;20.298;2022-07-23T06:35:05;100.80;;;31.33;;
70297;SDS011;57702;44.420;20.298;2022-07-23T06:37:31;31.08;;;10.38;;
70297;SDS011;57702;44.420;20.298;2022-07-23T06:39:58;27.35;;;9.82;;
70297;SDS011;57702;44.420;20.298;2022-07-23T06:42:24;42.83;;;11.63;;
70297;SDS011;57702;44.420;20.298;2022-07-23T06:44:50;77.20;;;26.25;;
70297;SDS011;57702;44.420;20.298;2022-07-23T06:47:16;98.28;;;28.38;;
70297;SDS011;57702;44.420;20.298;2022-07-23T06:49:42;84.78;;;25.92;;
70297;SDS011;57702;44.420;20.298;2022-07-23T06:52:08;57.08;;;16.48;;
70297;SDS011;57702;44.420;20.298;2022-07-23T06:54:34;77.63;;;19.23;;
70297;SDS011;57702;44.420;20.298;2022-07-23T06:57:01;67.82;;;22.88;;
70297;SDS011;57702;44.420;20.298;2022-07-23T06:59:27;69.88;;;24.85;;
70297;SDS011;57702;44.420;20.298;2022-07-23T07:01:53;80.15;;;27.63;;
70297;SDS011;57702;44.420;20.298;2022-07-23T07:04:19;71.28;;;24.98;;
70297;SDS011;57702;44.420;20.298;2022-07-23T07:06:45;62.50;;;21.80;;
70297;SDS011;57702;44.420;20.298;2022-07-23T07:09:11;58.17;;;24.77;;
70297;SDS011;57702;44.420;20.298;2022-07-23T07:11:38;53.60;;;21.42;;
70297;SDS011;57702;44.420;20.298;2022-07-23T07:14:04;107.55;;;43.95;;
70297;SDS011;57702;44.420;20.298;2022-07-23T07:16:30;89.43;;;41.45;;
70297;SDS011;57702;44.420;20.298;2022-07-23T07:18:56;76.63;;;30.00;;
70297;SDS011;57702;44.420;20.298;2022-07-23T07:21:22;64.80;;;27.50;;
70297;SDS011;57702;44.420;20.298;2022-07-23T07:23:48;68.63;;;26.65;;
70297;SDS011;57702;44.420;20.298;2022-07-23T07:26:15;73.22;;;24.63;;
70297;SDS011;57702;44.420;20.298;2022-07-23T07:28:41;58.92;;;21.00;;
70297;SDS011;57702;44.420;20.298;2022-07-23T07:31:07;47.90;;;19.15;;
70297;SDS011;57702;44.420;20.298;2022-07-23T07:33:33;56.58;;;21.05;;
70297;SDS011;57702;44.420;20.298;2022-07-23T07:35:59;35.42;;;17.40;;
70297;SDS011;57702;44.420;20.298;2022-07-23T07:38:26;42.20;;;17.80;;
70297;SDS011;57702;44.420;20.298;2022-07-23T07:40:52;49.60;;;18.20;;
70297;SDS011;57702;44.420;20.298;2022-07-23T07:43:18;43.72;;;17.08;;
70297;SDS011;57702;44.420;20.298;2022-07-23T07:45:44;47.72;;;17.27;;
70297;SDS011;57702;44.420;20.298;2022-07-23T07:48:10;47.03;;;15.68;;
70297;SDS011;57702;44.420;20.298;2022-07-23T07:50:36;33.95;;;14.95;;
70297;SDS011;57702;44.420;20.298;2022-07-23T07:53:03;45.42;;;14.93;;
70297;SDS011;57702;44.420;20.298;2022-07-23T07:55:29;31.15;;;14.05;;
70297;SDS011;57702;44.420;20.298;2022-07-23T07:57:56;36.50;;;12.55;;
70297;SDS011;57702;44.420;20.298;2022-07-23T08:00:22;31.65;;;12.75;;
70297;SDS011;57702;44.420;20.298;2022-07-23T08:02:49;28.67;;;13.27;;
70297;SDS011;57702;44.420;20.298;2022-07-23T08:05:25;32.13;;;12.57;;
70297;SDS011;57702;44.420;20.298;2022-07-23T08:07:52;54.63;;;13.05;;
70297;SDS011;57702;44.420;20.298;2022-07-23T08:10:18;32.03;;;12.02;;
70297;SDS011;57702;44.420;20.298;2022-07-23T08:12:45;45.05;;;13.68;;
70297;SDS011;57702;44.420;20.298;2022-07-23T08:15:15;40.08;;;12.10;;
70297;SDS011;57702;44.420;20.298;2022-07-23T08:17:42;34.20;;;11.70;;
70297;SDS011;57702;44.420;20.298;2022-07-23T08:20:08;31.48;;;11.40;;
70297;SDS011;57702;44.420;20.298;2022-07-23T08:22:45;33.20;;;11.48;;
70297;SDS011;57702;44.420;20.298;2022-07-23T08:25:11;27.55;;;9.68;;
70297;SDS011;57702;44.420;20.298;2022-07-23T08:27:38;31.33;;;11.63;;
70297;SDS011;57702;44.420;20.298;2022-07-23T08:30:04;34.53;;;10.77;;
70297;SDS011;57702;44.420;20.298;2022-07-23T08:32:30;32.60;;;12.43;;
70297;SDS011;57702;44.420;20.298;2022-07-23T08:34:56;28.55;;;10.88;;
70297;SDS011;57702;44.420;20.298;2022-07-23T08:37:23;32.20;;;10.45;;
70297;SDS011;57702;44.420;20.298;2022-07-23T08:39:49;28.52;;;11.77;;
70297;SDS011;57702;44.420;20.298;2022-07-23T08:42:15;36.83;;;13.25;;
70297;SDS011;57702;44.420;20.298;2022-07-23T08:44:42;31.30;;;11.93;;
70297;SDS011;57702;44.420;20.298;2022-07-23T08:47:10;38.92;;;14.07;;
70297;SDS011;57702;44.420;20.298;2022-07-23T08:49:37;36.03;;;11.80;;
70297;SDS011;57702;44.420;20.298;2022-07-23T08:52:04;32.83;;;11.32;;
70297;SDS011;57702;44.420;20.298;2022-07-23T08:54:31;37.22;;;11.98;;
70297;SDS011;57702;44.420;20.298;2022-07-23T08:56:57;35.38;;;12.82;;
70297;SDS011;57702;44.420;20.298;2022-07-23T08:59:23;29.58;;;11.75;;
70297;SDS011;57702;44.420;20.298;2022-07-23T09:01:51;36.15;;;13.52;;
70297;SDS011;57702;44.420;20.298;2022-07-23T09:04:18;32.85;;;11.93;;
70297;SDS011;57702;44.420;20.298;2022-07-23T09:06:44;30.98;;;11.32;;
70297;SDS011;57702;44.420;20.298;2022-07-23T09:09:20;36.92;;;11.48;;
70297;SDS011;57702;44.420;20.298;2022-07-23T09:11:46;28.88;;;12.52;;
70297;SDS011;57702;44.420;20.298;2022-07-23T09:14:13;32.10;;;12.35;;
70297;SDS011;57702;44.420;20.298;2022-07-23T09:16:39;24.17;;;11.07;;
70297;SDS011;57702;44.420;20.298;2022-07-23T09:19:06;31.27;;;11.75;;
70297;SDS011;57702;44.420;20.298;2022-07-23T09:21:33;24.48;;;10.50;;
70297;SDS011;57702;44.420;20.298;2022-07-23T09:26:27;27.08;;;8.52;;
70297;SDS011;57702;44.420;20.298;2022-07-23T09:31:33;24.38;;;7.80;;
70297;SDS011;57702;44.420;20.298;2022-07-23T09:34:09;13.43;;;7.30;;
70297;SDS011;57702;44.420;20.298;2022-07-23T09:36:36;21.33;;;7.25;;
70297;SDS011;57702;44.420;20.298;2022-07-23T09:39:02;14.40;;;7.88;;
70297;SDS011;57702;44.420;20.298;2022-07-23T09:41:38;28.42;;;7.65;;
70297;SDS011;57702;44.420;20.298;2022-07-23T09:44:23;25.60;;;7.45;;
70297;SDS011;57702;44.420;20.298;2022-07-23T09:46:50;15.07;;;5.53;;
70297;SDS011;57702;44.420;20.298;2022-07-23T09:54:20;25.00;;;6.20;;
70297;SDS011;57702;44.420;20.298;2022-07-23T09:56:47;18.17;;;6.57;;
70297;SDS011;57702;44.420;20.298;2022-07-23T09:59:14;13.55;;;4.95;;
70297;SDS011;57702;44.420;20.298;2022-07-23T10:01:45;13.07;;;6.88;;
70297;SDS011;57702;44.420;20.298;2022-07-23T10:04:11;15.70;;;5.88;;
70297;SDS011;57702;44.420;20.298;2022-07-23T10:06:39;19.80;;;6.40;;
70297;SDS011;57702;44.420;20.298;2022-07-23T10:09:05;16.92;;;6.50;;
70297;SDS011;57702;44.420;20.298;2022-07-23T10:11:32;22.52;;;8.52;;
70297;SDS011;57702;44.420;20.298;2022-07-23T10:14:00;20.88;;;6.43;;
70297;SDS011;57702;44.420;20.298;2022-07-23T10:16:28;11.00;;;3.88;;
70297;SDS011;57702;44.420;20.298;2022-07-23T10:18:55;11.57;;;4.13;;
70297;SDS011;57702;44.420;20.298;2022-07-23T10:21:24;16.60;;;6.00;;
70297;SDS011;57702;44.420;20.298;2022-07-23T10:23:57;22.13;;;5.65;;
70297;SDS011;57702;44.420;20.298;2022-07-23T10:26:29;17.13;;;5.05;;
70297;SDS011;57702;44.420;20.298;2022-07-23T10:32:02;10.70;;;3.50;;
70297;SDS011;57702;44.420;20.298;2022-07-23T10:37:01;11.00;;;3.13;;
70297;SDS011;57702;44.420;20.298;2022-07-23T10:39:32;11.02;;;3.42;;
70297;SDS011;57702;44.420;20.298;2022-07-23T10:42:09;11.50;;;3.78;;
70297;SDS011;57702;44.420;20.298;2022-07-23T10:44:47;11.57;;;4.45;;
70297;SDS011;57702;44.420;20.298;2022-07-23T10:47:29;8.45;;;4.60;;
70297;SDS011;57702;44.420;20.298;2022-07-23T10:50:17;13.10;;;5.72;;
70297;SDS011;57702;44.420;20.298;2022-07-23T10:53:07;28.63;;;7.75;;
70297;SDS011;57702;44.420;20.298;2022-07-23T10:55:38;42.60;;;8.18;;
70297;SDS011;57702;44.420;20.298;2022-07-23T10:58:05;15.70;;;6.25;;
70297;SDS011;57702;44.420;20.298;2022-07-23T11:00:32;20.23;;;7.15;;
70297;SDS011;57702;44.420;20.298;2022-07-23T11:02:59;26.30;;;8.18;;
70297;SDS011;57702;44.420;20.298;2022-07-23T11:05:30;13.63;;;5.28;;
70297;SDS011;57702;44.420;20.298;2022-07-23T11:26:57;18.92;;;10.80;;
70297;SDS011;57702;44.420;20.298;2022-07-23T11:31:55;20.83;;;8.80;;
70297;SDS011;57702;44.420;20.298;2022-07-23T11:36:57;20.08;;;8.32;;
70297;SDS011;57702;44.420;20.298;2022-07-23T11:39:24;20.25;;;6.88;;
70297;SDS011;57702;44.420;20.298;2022-07-23T11:41:51;20.23;;;7.18;;
70297;SDS011;57702;44.420;20.298;2022-07-23T11:44:30;17.02;;;7.22;;
70297;SDS011;57702;44.420;20.298;2022-07-23T11:46:57;15.57;;;5.40;;
70297;SDS011;57702;44.420;20.298;2022-07-23T11:49:24;14.27;;;6.20;;
70297;SDS011;57702;44.420;20.298;2022-07-23T11:52:11;13.05;;;5.80;;
70297;SDS011;57702;44.420;20.298;2022-07-23T11:54:46;15.50;;;5.22;;
70297;SDS011;57702;44.420;20.298;2022-07-23T11:57:13;21.98;;;5.60;;
70297;SDS011;57702;44.420;20.298;2022-07-23T11:59:40;11.75;;;5.38;;
70297;SDS011;57702;44.420;20.298;2022-07-23T12:02:06;11.63;;;6.30;;
70297;SDS011;57702;44.420;20.298;2022-07-23T12:04:49;8.85;;;5.13;;
70297;SDS011;57702;44.420;20.298;2022-07-23T12:12:42;16.73;;;6.00;;
70297;SDS011;57702;44.420;20.298;2022-07-23T12:15:09;11.98;;;5.78;;
70297;SDS011;57702;44.420;20.298;2022-07-23T12:17:37;14.55;;;6.38;;
70297;SDS011;57702;44.420;20.298;2022-07-23T12:20:04;10.10;;;5.15;;
70297;SDS011;57702;44.420;20.298;2022-07-23T12:22:38;18.17;;;5.38;;
70297;SDS011;57702;44.420;20.298;2022-07-23T12:25:10;9.40;;;4.88;;
70297;SDS011;57702;44.420;20.298;2022-07-23T12:27:36;16.73;;;4.82;;
70297;SDS011;57702;44.420;20.298;2022-07-23T12:30:24;16.00;;;5.03;;
70297;SDS011;57702;44.420;20.298;2022-07-23T12:32:50;12.40;;;4.10;;
70297;SDS011;57702;44.420;20.298;2022-07-23T12:35:16;10.38;;;4.05;;
70297;SDS011;57702;44.420;20.298;2022-07-23T12:37:43;8.05;;;3.25;;
70297;SDS011;57702;44.420;20.298;2022-07-23T12:40:20;14.25;;;4.03;;
70297;SDS011;57702;44.420;20.298;2022-07-23T12:42:50;12.00;;;4.35;;
70297;SDS011;57702;44.420;20.298;2022-07-23T12:45:16;16.90;;;4.50;;
70297;SDS011;57702;44.420;20.298;2022-07-23T12:47:56;11.45;;;4.13;;
70297;SDS011;57702;44.420;20.298;2022-07-23T12:50:43;15.43;;;4.60;;
70297;SDS011;57702;44.420;20.298;2022-07-23T12:53:14;10.38;;;4.38;;
70297;SDS011;57702;44.420;20.298;2022-07-23T12:55:41;7.10;;;3.85;;
70297;SDS011;57702;44.420;20.298;2022-07-23T12:58:09;14.77;;;3.72;;
70297;SDS011;57702;44.420;20.298;2022-07-23T13:03:38;9.07;;;3.40;;
70297;SDS011;57702;44.420;20.298;2022-07-23T13:08:32;12.98;;;3.45;;
70297;SDS011;57702;44.420;20.298;2022-07-23T13:10:58;8.40;;;3.40;;
70297;SDS011;57702;44.420;20.298;2022-07-23T13:13:26;7.07;;;3.55;;
70297;SDS011;57702;44.420;20.298;2022-07-23T13:15:52;16.52;;;3.83;;
70297;SDS011;57702;44.420;20.298;2022-07-23T13:18:19;6.82;;;3.53;;
70297;SDS011;57702;44.420;20.298;2022-07-23T13:20:46;13.15;;;3.00;;
70297;SDS011;57702;44.420;20.298;2022-07-23T13:23:13;10.68;;;4.15;;
70297;SDS011;57702;44.420;20.298;2022-07-23T13:25:39;9.20;;;3.70;;
70297;SDS011;57702;44.420;20.298;2022-07-23T13:28:05;9.93;;;3.47;;
70297;SDS011;57702;44.420;20.298;2022-07-23T13:30:32;8.10;;;3.00;;
70297;SDS011;57702;44.420;20.298;2022-07-23T13:32:58;14.73;;;3.50;;
70297;SDS011;57702;44.420;20.298;2022-07-23T13:35:25;6.68;;;3.47;;
70297;SDS011;57702;44.420;20.298;2022-07-23T13:37:51;7.95;;;3.17;;
70297;SDS011;57702;44.420;20.298;2022-07-23T13:40:17;14.00;;;3.72;;
70297;SDS011;57702;44.420;20.298;2022-07-23T13:42:43;19.23;;;3.67;;
70297;SDS011;57702;44.420;20.298;2022-07-23T13:45:10;5.70;;;3.22;;
70297;SDS011;57702;44.420;20.298;2022-07-23T13:47:36;8.55;;;3.70;;
70297;SDS011;57702;44.420;20.298;2022-07-23T13:50:02;12.40;;;3.17;;
70297;SDS011;57702;44.420;20.298;2022-07-23T13:52:29;5.78;;;2.90;;
70297;SDS011;57702;44.420;20.298;2022-07-23T13:54:55;8.38;;;2.72;;
70297;SDS011;57702;44.420;20.298;2022-07-23T13:57:21;9.23;;;3.15;;
70297;SDS011;57702;44.420;20.298;2022-07-23T13:59:47;11.88;;;2.95;;
70297;SDS011;57702;44.420;20.298;2022-07-23T14:02:14;6.95;;;2.78;;
70297;SDS011;57702;44.420;20.298;2022-07-23T14:04:41;7.63;;;2.80;;
70297;SDS011;57702;44.420;20.298;2022-07-23T14:07:08;11.07;;;3.08;;
70297;SDS011;57702;44.420;20.298;2022-07-23T14:09:34;4.43;;;2.60;;
70297;SDS011;57702;44.420;20.298;2022-07-23T14:12:00;8.80;;;3.17;;
70297;SDS011;57702;44.420;20.298;2022-07-23T14:14:26;7.80;;;2.95;;
70297;SDS011;57702;44.420;20.298;2022-07-23T14:16:52;6.63;;;2.70;;
70297;SDS011;57702;44.420;20.298;2022-07-23T14:19:19;4.47;;;3.00;;
70297;SDS011;57702;44.420;20.298;2022-07-23T14:21:45;3.65;;;2.83;;
70297;SDS011;57702;44.420;20.298;2022-07-23T14:24:13;6.78;;;2.83;;
70297;SDS011;57702;44.420;20.298;2022-07-23T14:26:40;4.97;;;2.60;;
70297;SDS011;57702;44.420;20.298;2022-07-23T14:29:06;5.15;;;3.17;;
70297;SDS011;57702;44.420;20.298;2022-07-23T14:31:32;7.75;;;3.25;;
70297;SDS011;57702;44.420;20.298;2022-07-23T14:33:59;7.20;;;2.97;;
70297;SDS011;57702;44.420;20.298;2022-07-23T14:36:25;11.80;;;3.60;;
70297;SDS011;57702;44.420;20.298;2022-07-23T14:38:51;3.72;;;2.72;;
70297;SDS011;57702;44.420;20.298;2022-07-23T14:41:17;9.55;;;3.28;;
70297;SDS011;57702;44.420;20.298;2022-07-23T14:43:43;5.55;;;2.85;;
70297;SDS011;57702;44.420;20.298;2022-07-23T14:46:10;7.10;;;2.70;;
70297;SDS011;57702;44.420;20.298;2022-07-23T14:48:37;8.80;;;3.20;;
70297;SDS011;57702;44.420;20.298;2022-07-23T14:51:03;4.88;;;2.63;;
70297;SDS011;57702;44.420;20.298;2022-07-23T14:53:29;5.93;;;2.90;;
70297;SDS011;57702;44.420;20.298;2022-07-23T14:55:56;4.63;;;3.08;;
70297;SDS011;57702;44.420;20.298;2022-07-23T14:58:25;4.68;;;2.88;;
70297;SDS011;57702;44.420;20.298;2022-07-23T15:00:51;2.80;;;2.55;;
70297;SDS011;57702;44.420;20.298;2022-07-23T15:03:18;3.88;;;2.80;;
70297;SDS011;57702;44.420;20.298;2022-07-23T15:05:44;6.47;;;2.50;;
70297;SDS011;57702;44.420;20.298;2022-07-23T15:08:10;2.95;;;2.40;;
70297;SDS011;57702;44.420;20.298;2022-07-23T15:10:36;10.65;;;2.95;;
70297;SDS011;57702;44.420;20.298;2022-07-23T15:13:03;5.80;;;2.95;;